Tampa, Florida
Current Conditions -  °F | °C
As of 1:53 AM on Monday 22 Dec 2014 (Local Time) from KTPA Reporting Station
Broken Clouds Broken Clouds  
Wind Chill: 67°   Ceiling: 14000
Heat Index: 67°   Visibility: 7mi
Dew Point: 65°   Wind: 5mph
Humidity: 93%   Direction: 100°E
Pressure: 30.01"   Gusts: NA
Location:  27.95°N, 82.46°W
Report Text: KTPA 220653Z 10004KT 7SM SCT025 BKN140 19/18 A3001 RMK AO2 SLP162 T01940183
Loading
Personal Weather Stations






























Interactive Weather Map New forecast layout! Learn more

10-Day Weather Forecast

Advertisements
Track Severe Weather on mobile